Time;durP1;ratioP1;P1;durP2;ratioP2;P2;SDS_P1;SDS_P2;PMS_P1;PMS_P2;Temp;Humidity;BMP_temperature;BMP_pressure;BME280_temperature;BME280_humidity;BME280_pressure;Samples;Min_cycle;Max_cycle;Signal;HPM_P1;HPM_P2
2023/10/22 00:02:42;;;;;;;6.68;1.92;;;;;;;;;;6209419;23;20025;-88
2023/10/22 00:05:28;;;;;;;8.07;1.98;;;;;;;;;;6225968;23;20207;-89
2023/10/22 00:08:23;;;;;;;;;;;;;;;;;;;;;
2023/10/22 00:11:08;;;;;;;9.38;1.70;;;;;;;;;;6228666;22;20016;-89
2023/10/22 00:13:53;;;;;;;5.65;1.75;;;;;;;;;;6231931;22;20099;-89
2023/10/22 00:16:37;;;;;;;8.13;1.10;;;;;;;;;;6210413;23;20039;-90
2023/10/22 00:19:11;;;;;;;4.68;1.13;;;;;;;;;;6209559;22;20052;-90
2023/10/22 00:21:43;;;;;;;2.88;0.98;;;;;;;;;;6211079;23;20040;-89
2023/10/22 00:24:23;;;;;;;9.15;1.35;;;;;;;;;;6210589;23;20021;-90
2023/10/22 00:26:56;;;;;;;3.35;1.00;;;;;;;;;;6209533;23;20024;-90
2023/10/22 00:29:33;;;;;;;3.88;1.08;;;;;;;;;;6235785;23;20036;-90
2023/10/22 00:32:18;;;;;;;0.93;0.60;;;;;;;;;;6210564;22;20023;-89
2023/10/22 00:34:59;;;;;;;;;;;;;;;;;;;;;
2023/10/22 00:37:37;;;;;;;6.75;1.05;;;;;;;;;;6235952;22;20035;-89
2023/10/22 00:40:10;;;;;;;8.90;0.80;;;;;;;;;;6235618;22;20027;-90
2023/10/22 00:42:50;;;;;;;7.38;1.15;;;;;;;;;;6235112;22;20046;-89
2023/10/22 00:45:37;;;;;;;10.30;1.17;;;;;;;;;;6214697;22;20084;-90
2023/10/22 00:48:09;;;;;;;2.70;0.73;;;;;;;;;;6237217;22;20025;-90
2023/10/22 00:51:16;;;;;;;3.40;0.93;;;;;;;;;;6233906;22;20013;-89
2023/10/22 00:53:56;;;;;;;6.63;1.02;;;;;;;;;;6237793;22;20027;-89
2023/10/22 00:56:42;;;;;;;5.47;0.88;;;;;;;;;;6235385;22;20013;-89
2023/10/22 00:59:27;;;;;;;4.57;1.23;;;;;;;;;;6213410;23;20068;-90
2023/10/22 01:03:36;;;;;;;7.65;0.82;;;;;;;;;;5155416;27;20191;-90
2023/10/22 01:06:16;;;;;;;3.97;1.15;;;;;;;;;;5134143;28;20032;-90
2023/10/22 01:08:52;;;;;;;;;;;;;;;;;;5135253;28;20044;-90
2023/10/22 01:11:33;;;;;;;1.73;1.00;;;;;;;;;;5134577;28;19919;-89
2023/10/22 01:14:15;;;;;;;3.75;1.20;;;;;;;;;;5123785;28;20044;-89
2023/10/22 01:16:57;;;;;;;4.25;1.20;;;;;;;;;;5128920;28;20040;-89
2023/10/22 01:19:43;;;;;;;5.95;1.17;;;;;;;;;;5129081;28;20358;-89
2023/10/22 01:22:47;;;;;;;4.38;1.00;;;;;;;;;;5127551;28;20044;-89
2023/10/22 01:25:35;;;;;;;3.97;0.93;;;;;;;;;;5129782;28;20038;-89
2023/10/22 01:28:20;;;;;;;7.13;1.05;;;;;;;;;;5131549;28;20043;-89
2023/10/22 01:31:16;;;;;;;2.78;0.95;;;;;;;;;;5129453;28;20103;-89
2023/10/22 01:34:05;;;;;;;4.60;0.95;;;;;;;;;;5128013;28;20098;-88
2023/10/22 01:36:56;;;;;;;6.30;1.27;;;;;;;;;;5115216;28;20118;-89
2023/10/22 01:39:43;;;;;;;2.25;0.77;;;;;;;;;;5126995;28;20107;-88
2023/10/22 01:42:57;;;;;;;6.95;1.17;;;;;;;;;;5125474;28;20093;-89
2023/10/22 01:45:50;;;;;;;4.35;0.90;;;;;;;;;;5127730;28;20327;-88
2023/10/22 01:48:50;;;;;;;3.97;1.10;;;;;;;;;;5127111;28;20040;-88
2023/10/22 01:51:32;;;;;;;7.47;1.20;;;;;;;;;;5126662;28;20042;-89
2023/10/22 01:54:21;;;;;;;2.05;0.70;;;;;;;;;;5130945;28;20071;-89
2023/10/22 01:57:04;;;;;;;2.08;0.73;;;;;;;;;;5125737;28;20062;-89
2023/10/22 01:59:48;;;;;;;3.28;1.08;;;;;;;;;;5126729;28;20111;-89
2023/10/22 02:02:34;;;;;;;2.22;0.80;;;;;;;;;;5126805;28;20056;-89
2023/10/22 02:05:34;;;;;;;4.65;1.05;;;;;;;;;;5124843;28;20040;-90
2023/10/22 02:08:20;;;;;;;3.38;0.80;;;;;;;;;;5129246;28;20050;-88
2023/10/22 02:11:09;;;;;;;5.43;0.80;;;;;;;;;;5129697;28;20092;-89
2023/10/22 02:13:57;;;;;;;4.00;1.02;;;;;;;;;;5116254;28;20047;-88
2023/10/22 02:16:45;;;;;;;3.50;0.50;;;;;;;;;;5112539;28;20123;-90
2023/10/22 02:19:33;;;;;;;3.60;1.15;;;;;;;;;;5112798;28;20058;-89
2023/10/22 02:22:16;;;;;;;3.90;0.82;;;;;;;;;;5113076;28;20056;-88
2023/10/22 02:24:57;;;;;;;4.03;0.65;;;;;;;;;;5112996;28;20070;-88
2023/10/22 02:27:42;;;;;;;1.60;1.05;;;;;;;;;;5114818;28;20072;-89
2023/10/22 02:30:24;;;;;;;7.70;1.00;;;;;;;;;;5114618;28;20036;-89
2023/10/22 02:33:11;;;;;;;2.42;0.75;;;;;;;;;;5114917;28;20131;-89
2023/10/22 02:36:10;;;;;;;4.30;1.17;;;;;;;;;;5111466;28;20052;-89
2023/10/22 02:38:57;;;;;;;1.67;0.50;;;;;;;;;;5115648;28;20040;-90
2023/10/22 02:41:39;;;;;;;4.47;0.85;;;;;;;;;;5114108;28;20040;-88
2023/10/22 02:47:36;;;;;;;6.07;0.68;;;;;;;;;;5114318;28;20049;-89
2023/10/22 02:50:20;;;;;;;3.03;0.80;;;;;;;;;;5117054;28;20040;-89
2023/10/22 02:53:19;;;;;;;6.40;0.98;;;;;;;;;;5114613;28;20028;-89
2023/10/22 02:56:21;;;;;;;8.88;1.20;;;;;;;;;;5114417;28;20062;-89
2023/10/22 02:59:03;;;;;;;3.45;0.70;;;;;;;;;;5112841;28;20112;-89
2023/10/22 03:02:01;;;;;;;5.28;0.70;;;;;;;;;;5117349;28;20067;-89
2023/10/22 03:04:43;;;;;;;9.18;0.70;;;;;;;;;;5115588;28;20055;-89
2023/10/22 03:07:25;;;;;;;5.35;0.80;;;;;;;;;;5114942;28;20040;-88
2023/10/22 03:10:13;;;;;;;8.80;0.80;;;;;;;;;;5113141;28;20078;-89
2023/10/22 03:12:58;;;;;;;2.53;0.80;;;;;;;;;;5115990;28;20136;-89
2023/10/22 03:15:39;;;;;;;5.18;0.90;;;;;;;;;;5115892;28;20044;-89
2023/10/22 03:18:22;;;;;;;4.68;0.90;;;;;;;;;;5114228;28;20056;-88
2023/10/22 03:21:12;;;;;;;3.75;1.05;;;;;;;;;;5113978;28;20052;-89
2023/10/22 03:23:53;;;;;;;6.95;1.42;;;;;;;;;;5113780;28;20100;-89
2023/10/22 03:26:37;;;;;;;2.75;0.50;;;;;;;;;;5113681;28;20043;-89
2023/10/22 03:29:27;;;;;;;3.00;0.70;;;;;;;;;;5113949;28;20054;-89
2023/10/22 03:32:09;;;;;;;5.25;0.85;;;;;;;;;;5114023;28;20047;-88
2023/10/22 03:35:01;;;;;;;;;;;;;;;;;;;;;
2023/10/22 03:37:46;;;;;;;6.30;0.95;;;;;;;;;;5114597;28;20048;-89
2023/10/22 03:45:52;;;;;;;7.45;0.90;;;;;;;;;;5141025;22;20052;-88
2023/10/22 03:48:37;;;;;;;3.60;0.80;;;;;;;;;;5072380;28;20057;-89
2023/10/22 03:51:28;;;;;;;;;;;;;;;;;;;;;
2023/10/22 03:54:10;;;;;;;3.65;0.75;;;;;;;;;;5071959;28;20080;-90
2023/10/22 03:56:55;;;;;;;6.72;0.82;;;;;;;;;;5071164;28;20020;-89
2023/10/22 03:59:37;;;;;;;3.85;0.90;;;;;;;;;;5071394;28;20118;-89
2023/10/22 04:02:27;;;;;;;5.22;0.98;;;;;;;;;;5071215;28;20064;-89
2023/10/22 04:05:11;;;;;;;8.23;0.90;;;;;;;;;;5076110;28;20037;-89
2023/10/22 04:07:58;;;;;;;1.65;0.50;;;;;;;;;;5071165;28;20071;-89
2023/10/22 04:10:53;;;;;;;4.25;0.80;;;;;;;;;;5069240;28;20048;-90
2023/10/22 04:13:34;;;;;;;4.05;0.63;;;;;;;;;;5072990;28;20056;-87
2023/10/22 04:16:47;;;;;;;;;;;;;;;;;;;;;
2023/10/22 04:19:30;;;;;;;5.78;0.85;;;;;;;;;;5070823;28;20092;-89
2023/10/22 04:22:15;;;;;;;3.20;0.60;;;;;;;;;;5069616;28;20045;-88
2023/10/22 04:25:03;;;;;;;3.22;0.70;;;;;;;;;;5070162;28;20084;-88
2023/10/22 04:27:48;;;;;;;4.07;0.75;;;;;;;;;;5070717;28;20067;-86
2023/10/22 04:30:21;;;;;;;5.93;1.45;;;;;;;;;;5075659;28;20033;-90
2023/10/22 04:33:17;;;;;;;1.77;0.60;;;;;;;;;;5077074;28;20049;-89
2023/10/22 04:35:48;;;;;;;3.65;0.82;;;;;;;;;;5076687;28;20045;-89
2023/10/22 04:38:36;;;;;;;4.10;0.85;;;;;;;;;;5070341;28;20101;-89
2023/10/22 04:41:12;;;;;;;2.88;0.77;;;;;;;;;;5076773;28;20036;-91
2023/10/22 04:43:54;;;;;;;5.28;0.80;;;;;;;;;;5076065;28;20033;-89
2023/10/22 04:46:42;;;;;;;8.20;0.80;;;;;;;;;;5076395;28;20063;-90
2023/10/22 04:49:26;;;;;;;2.97;0.75;;;;;;;;;;5075639;28;20037;-90
2023/10/22 04:52:27;;;;;;;2.58;0.77;;;;;;;;;;5076337;28;20074;-91
2023/10/22 04:55:03;;;;;;;6.18;0.80;;;;;;;;;;5075857;28;20072;-89
2023/10/22 04:57:50;;;;;;;4.32;0.82;;;;;;;;;;5076054;28;20060;-90
2023/10/22 05:00:41;;;;;;;2.35;0.50;;;;;;;;;;5076832;28;20036;-88
2023/10/22 05:03:23;;;;;;;3.55;0.65;;;;;;;;;;5076849;28;20037;-88
2023/10/22 05:06:04;;;;;;;7.90;1.05;;;;;;;;;;5076357;28;20032;-90
2023/10/22 05:08:45;;;;;;;1.27;0.63;;;;;;;;;;5076797;28;20045;-88
2023/10/22 05:11:20;;;;;;;5.35;0.55;;;;;;;;;;5076388;28;20048;-90
2023/10/22 05:13:53;;;;;;;2.30;0.80;;;;;;;;;;5120444;22;20104;-87
2023/10/22 05:16:37;;;;;;;3.78;0.55;;;;;;;;;;5055989;28;20053;-88
2023/10/22 05:19:08;;;;;;;5.22;1.00;;;;;;;;;;5057460;28;20049;-91
2023/10/22 05:21:41;;;;;;;4.40;1.52;;;;;;;;;;5040577;28;20045;-88
2023/10/22 05:24:15;;;;;;;3.17;0.80;;;;;;;;;;5040810;28;20034;-90
2023/10/22 05:26:55;;;;;;;8.77;1.27;;;;;;;;;;5057522;28;20038;-90
2023/10/22 05:29:55;;;;;;;3.08;0.60;;;;;;;;;;5055335;28;20053;-87
2023/10/22 05:32:56;;;;;;;2.55;0.70;;;;;;;;;;5055162;28;20097;-88
2023/10/22 05:39:00;;;;;;;4.57;0.50;;;;;;;;;;5055017;28;20041;-88
2023/10/22 05:41:46;;;;;;;3.50;0.80;;;;;;;;;;5036430;28;20105;-89
2023/10/22 05:44:38;;;;;;;3.03;0.57;;;;;;;;;;5037959;28;20044;-87
2023/10/22 05:47:31;;;;;;;3.38;0.50;;;;;;;;;;5038420;28;20037;-88
2023/10/22 06:03:07;;;;;;;2.83;0.70;;;;;;;;;;5074030;28;20057;-89
2023/10/22 06:08:43;;;;;;;4.38;1.15;;;;;;;;;;5373364;22;20095;-88
2023/10/22 06:15:06;;;;;;;;;;;;;;;;;;;;;
2023/10/22 06:18:02;;;;;;;7.30;0.60;;;;;;;;;;5075322;28;20097;-89
2023/10/22 06:20:45;;;;;;;6.95;0.60;;;;;;;;;;5060076;28;20223;-88
2023/10/22 06:23:29;;;;;;;2.40;0.60;;;;;;;;;;5057961;28;20083;-88
2023/10/22 06:31:42;;;;;;;6.88;0.47;;;;;;;;;;5238885;22;20072;-88
2023/10/22 06:37:24;;;;;;;1.15;0.45;;;;;;;;;;5358645;22;20044;-89
2023/10/22 06:46:00;;;;;;;4.15;0.55;;;;;;;;;;5057002;28;20037;-91
2023/10/22 06:48:42;;;;;;;2.83;0.70;;;;;;;;;;5038891;28;20037;-89
2023/10/22 06:51:38;;;;;;;4.18;0.88;;;;;;;;;;5380809;22;20052;-88
2023/10/22 06:54:21;;;;;;;6.82;0.77;;;;;;;;;;5070828;28;20073;-90
2023/10/22 06:57:17;;;;;;;2.35;0.50;;;;;;;;;;5108746;22;20061;-86
2023/10/22 07:00:24;;;;;;;2.10;0.30;;;;;;;;;;5069651;28;20055;-89
2023/10/22 07:11:35;;;;;;;;;;;;;;;;;;;;;
2023/10/22 07:14:46;;;;;;;5.25;0.55;;;;;;;;;;5156959;22;20071;-89
2023/10/22 07:17:28;;;;;;;2.08;0.65;;;;;;;;;;5077750;28;20033;-89
2023/10/22 07:20:16;;;;;;;5.00;0.60;;;;;;;;;;5060896;28;20095;-88
2023/10/22 07:36:03;;;;;;;;;;;;;;;;;;;;;
2023/10/22 07:38:59;;;;;;;;;;;;;;;;;;5076204;28;20052;-89
2023/10/22 07:41:44;;;;;;;4.28;0.73;;;;;;;;;;5073530;28;19904;-89
2023/10/22 07:47:17;;;;;;;3.33;0.98;;;;;;;;;;5644179;23;20034;-90
2023/10/22 07:50:07;;;;;;;3.38;0.70;;;;;;;;;;4999566;28;20069;-89
2023/10/22 07:52:49;;;;;;;1.90;0.60;;;;;;;;;;5017001;28;20034;-88
2023/10/22 07:58:09;;;;;;;4.87;0.87;;;;;;;;;;5507261;23;20058;-88
2023/10/22 08:00:57;;;;;;;3.70;0.70;;;;;;;;;;5000593;28;20034;-89
2023/10/22 08:04:21;;;;;;;4.13;1.48;;;;;;;;;;5015849;28;20073;-89
2023/10/22 08:07:08;;;;;;;2.55;0.90;;;;;;;;;;5016740;28;20049;-89
2023/10/22 08:10:12;;;;;;;;;;;;;;;;;;;;;
2023/10/22 08:15:45;;;;;;;5.72;1.65;;;;;;;;;;5016857;23;20058;-87
2023/10/22 08:23:40;;;;;;;4.35;1.45;;;;;;;;;;3076712;26;20051;-90
2023/10/22 08:26:43;;;;;;;6.20;1.15;;;;;;;;;;4982045;28;20521;-90
2023/10/22 08:29:26;;;;;;;4.18;1.40;;;;;;;;;;4997536;28;20039;-88
2023/10/22 08:32:15;;;;;;;2.25;1.40;;;;;;;;;;5170781;23;20327;-89
2023/10/22 08:38:15;;;;;;;4.53;1.50;;;;;;;;;;5267032;23;20050;-90
2023/10/22 08:41:14;;;;;;;2.63;1.80;;;;;;;;;;5017229;28;20044;-90
2023/10/22 08:44:02;;;;;;;4.97;1.80;;;;;;;;;;5003416;28;20042;-89
2023/10/22 08:46:43;;;;;;;3.35;1.58;;;;;;;;;;5043706;23;20174;-90
2023/10/22 08:49:29;;;;;;;7.57;1.95;;;;;;;;;;5017779;28;20030;-91
2023/10/22 10:13:55;;;;;;;3.90;0.70;;;;;;;;;;6066476;23;20017;31
2023/10/22 10:17:01;;;;;;;8.02;1.00;;;;;;;;;;4923447;29;20045;-88
2023/10/22 10:22:41;;;;;;;4.07;1.17;;;;;;;;;;5750068;23;20047;-90
2023/10/22 10:28:38;;;;;;;2.50;1.20;;;;;;;;;;5438466;23;20047;-89
2023/10/22 10:31:36;;;;;;;3.35;1.40;;;;;;;;;;4963746;28;20039;-91
2023/10/22 10:34:41;;;;;;;5.60;1.30;;;;;;;;;;4963762;28;20035;-89
2023/10/22 10:37:49;;;;;;;3.60;1.70;;;;;;;;;;4963879;28;20038;-90
2023/10/22 10:41:03;;;;;;;4.13;1.60;;;;;;;;;;4963220;28;20071;-89
2023/10/22 10:44:15;;;;;;;6.63;1.67;;;;;;;;;;4973016;28;20074;-90
2023/10/22 10:46:59;;;;;;;;;;;;;;;;;;5054509;23;20399;-89
2023/10/22 10:50:06;;;;;;;6.07;1.70;;;;;;;;;;4924275;29;19938;-88
2023/10/22 10:52:59;;;;;;;2.40;1.20;;;;;;;;;;4924127;29;20052;-89
2023/10/22 10:56:17;;;;;;;;;;;;;;;;;;;;;
2023/10/22 10:59:14;;;;;;;3.10;1.20;;;;;;;;;;4995999;23;20117;-89
2023/10/22 11:02:30;;;;;;;2.28;1.08;;;;;;;;;;4962519;29;20045;-89
2023/10/22 11:12:56;;;;;;;;;;;;;;;;;;;;;
2023/10/22 11:16:27;;;;;;;;;;;;;;;;;;;;;
2023/10/22 11:22:48;;;;;;;3.33;0.70;;;;;;;;;;4938446;29;20035;-88
2023/10/22 11:25:43;;;;;;;4.15;0.50;;;;;;;;;;4950298;28;20039;-88
2023/10/22 11:35:36;;;;;;;1.98;0.60;;;;;;;;;;4840215;29;20042;-88
2023/10/22 11:38:51;;;;;;;3.22;0.70;;;;;;;;;;4839425;29;20039;-88
2023/10/22 11:42:14;;;;;;;0.00;0.00;;;;;;;;;;4868000;29;20047;-88
2023/10/22 11:45:30;;;;;;;0.00;0.00;;;;;;;;;;4912129;29;20049;-88
2023/10/22 11:48:45;;;;;;;2.85;0.55;;;;;;;;;;4914410;29;20033;-89
2023/10/22 11:54:43;;;;;;;;;;;;;;;;;;;;;
2023/10/22 11:58:32;;;;;;;;;;;;;;;;;;;;;
2023/10/22 12:02:14;;;;;;;3.38;0.68;;;;;;;;;;4975819;28;20077;-87
2023/10/22 12:34:56;;;;;;;2.20;0.55;;;;;;;;;;4973051;28;20051;-89
2023/10/22 12:38:10;;;;;;;3.88;0.65;;;;;;;;;;4958587;29;20035;-88
2023/10/22 12:41:25;;;;;;;3.63;0.70;;;;;;;;;;4923457;29;20071;-89
2023/10/22 12:44:32;;;;;;;2.60;1.10;;;;;;;;;;4958922;29;20047;-89
2023/10/22 12:51:08;;;;;;;3.90;0.60;;;;;;;;;;4884961;29;20107;-88
2023/10/22 12:53:54;;;;;;;1.25;0.93;;;;;;;;;;4958365;29;20098;-89
2023/10/22 12:57:03;;;;;;;3.10;0.65;;;;;;;;;;4970737;29;20051;-87
2023/10/22 13:00:03;;;;;;;3.40;0.70;;;;;;;;;;4951610;29;20043;-89
2023/10/22 13:03:03;;;;;;;1.30;0.50;;;;;;;;;;4969574;29;20061;-88
2023/10/22 13:05:53;;;;;;;2.72;0.82;;;;;;;;;;4918726;28;20054;-88
2023/10/22 13:08:53;;;;;;;7.80;0.77;;;;;;;;;;4955269;29;20023;-88
2023/10/22 13:11:57;;;;;;;4.85;0.88;;;;;;;;;;4969049;29;20070;-87
2023/10/22 13:14:48;;;;;;;;;;;;;;;;;;;;;
2023/10/22 13:18:42;;;;;;;;;;;;;;;;;;;;;
2023/10/22 14:40:21;;;;;;;5.72;1.35;;;;;;;;;;5031553;23;20461;-88
2023/10/22 15:18:20;;;;;;;1.40;0.50;;;;;;;;;;4952635;29;20056;-87
2023/10/22 15:21:26;;;;;;;;;;;;;;;;;;;;;
2023/10/22 15:24:25;;;;;;;5.28;0.90;;;;;;;;;;4945455;29;20070;-88
2023/10/22 15:28:12;;;;;;;;;;;;;;;;;;;;;
2023/10/22 15:31:38;;;;;;;2.97;0.65;;;;;;;;;;4914008;29;20048;-89
2023/10/22 16:09:14;;;;;;;4.00;0.98;;;;;;;;;;4933616;29;20072;-89
2023/10/22 16:12:14;;;;;;;2.30;0.60;;;;;;;;;;4933885;29;20287;-90
2023/10/22 16:14:58;;;;;;;1.98;1.52;;;;;;;;;;4914959;29;20077;-89
2023/10/22 16:18:22;;;;;;;2.78;0.85;;;;;;;;;;4901246;29;20056;-90
2023/10/22 16:31:42;;;;;;;2.53;0.40;;;;;;;;;;5010793;23;20149;-90
2023/10/22 16:34:28;;;;;;;1.40;0.75;;;;;;;;;;5200819;23;20030;-86
2023/10/22 16:37:20;;;;;;;0.95;0.50;;;;;;;;;;4918515;29;20067;-90
2023/10/22 16:40:13;;;;;;;;;;;;;;;;;;;;;
2023/10/22 16:43:27;;;;;;;2.25;0.93;;;;;;;;;;4918539;29;20056;-89
2023/10/22 16:46:26;;;;;;;1.60;0.80;;;;;;;;;;4916761;29;20045;-89
2023/10/22 16:49:24;;;;;;;3.17;1.13;;;;;;;;;;4916894;29;20043;-91
2023/10/22 16:52:21;;;;;;;4.50;1.05;;;;;;;;;;4916592;29;20036;-90
2023/10/22 16:55:31;;;;;;;1.88;0.70;;;;;;;;;;4985424;23;20040;-90
2023/10/22 16:58:11;;;;;;;3.00;1.23;;;;;;;;;;4956481;29;20120;-90
2023/10/22 17:01:38;;;;;;;2.42;1.00;;;;;;;;;;4940437;29;20063;-90
2023/10/22 17:04:27;;;;;;;3.35;1.65;;;;;;;;;;4920284;29;20036;-90
2023/10/22 17:07:17;;;;;;;1.85;0.93;;;;;;;;;;4936286;29;20027;-90
2023/10/22 17:10:31;;;;;;;1.38;1.00;;;;;;;;;;4940883;29;20043;-91
2023/10/22 17:13:19;;;;;;;3.72;0.98;;;;;;;;;;4939703;29;20052;-90
2023/10/22 17:16:22;;;;;;;2.30;1.02;;;;;;;;;;4957049;29;20096;-90
2023/10/22 17:19:46;;;;;;;47.35;27.80;;;;;;;;;;4878245;29;20040;-90
2023/10/22 17:23:28;;;;;;;;;;;;;;;;;;;;;
2023/10/22 17:26:37;;;;;;;;;;;;;;;;;;;;;
2023/10/22 17:30:02;;;;;;;9.15;2.03;;;;;;;;;;4943563;29;20024;-90
2023/10/22 17:36:32;;;;;;;5.68;4.50;;;;;;;;;;4952287;29;20072;-90
2023/10/22 17:39:31;;;;;;;3.05;2.08;;;;;;;;;;4955278;29;20052;-89
2023/10/22 17:46:12;;;;;;;3.40;2.70;;;;;;;;;;4882385;29;20071;-88
2023/10/22 17:48:59;;;;;;;4.35;2.08;;;;;;;;;;4863433;29;20061;-90
2023/10/22 17:51:43;;;;;;;2.88;1.63;;;;;;;;;;4868886;29;20049;-90
2023/10/22 18:56:09;;;;;;;2.78;1.95;;;;;;;;;;4956259;29;20042;-90
2023/10/22 18:59:09;;;;;;;10.73;3.47;;;;;;;;;;4958456;29;20036;-90
2023/10/22 19:05:30;;;;;;;4.03;2.25;;;;;;;;;;5114109;23;20047;-87
2023/10/22 19:08:44;;;;;;;4.38;2.42;;;;;;;;;;4946806;29;20096;-90
2023/10/22 19:12:04;;;;;;;;;;;;;;;;;;;;;
2023/10/22 19:14:54;;;;;;;7.03;2.40;;;;;;;;;;4957159;28;20044;-87
2023/10/22 19:18:20;;;;;;;8.15;3.25;;;;;;;;;;4958885;29;20043;-89
2023/10/22 19:21:07;;;;;;;7.90;2.83;;;;;;;;;;4950389;29;20060;-89
2023/10/22 19:23:58;;;;;;;8.85;2.30;;;;;;;;;;4943534;29;20048;-91
2023/10/22 19:43:52;;;;;;;31.58;15.48;;;;;;;;;;4944382;29;20046;-90
2023/10/22 19:58:33;;;;;;;11.27;4.10;;;;;;;;;;4958384;29;20104;-89
2023/10/22 20:01:26;;;;;;;10.07;3.83;;;;;;;;;;4957847;29;20055;-90
2023/10/22 20:04:32;;;;;;;8.20;3.53;;;;;;;;;;4942521;29;20064;-91
2023/10/22 20:10:17;;;;;;;6.18;2.97;;;;;;;;;;4898894;29;20057;-90
2023/10/22 20:13:26;;;;;;;4.85;2.67;;;;;;;;;;4887343;29;20095;-89
2023/10/22 20:16:50;;;;;;;5.20;3.22;;;;;;;;;;4939348;29;20035;-89
2023/10/22 20:20:13;;;;;;;7.40;3.22;;;;;;;;;;4945921;29;20076;-91
2023/10/22 20:23:04;;;;;;;18.25;9.15;;;;;;;;;;4958236;29;20099;-90
2023/10/22 20:25:50;;;;;;;7.25;3.30;;;;;;;;;;4936436;29;20103;-90
2023/10/22 20:28:50;;;;;;;7.03;3.40;;;;;;;;;;4936050;29;20035;-90
2023/10/22 20:32:06;;;;;;;4.97;3.58;;;;;;;;;;4956513;29;20047;-89
2023/10/22 20:34:57;;;;;;;;;;;;;;;;;;;;;
2023/10/22 20:37:47;;;;;;;5.97;3.97;;;;;;;;;;4955288;29;20066;-89
2023/10/22 20:40:33;;;;;;;6.28;4.00;;;;;;;;;;5309459;23;20088;-87
2023/10/22 20:46:54;;;;;;;8.55;3.35;;;;;;;;;;4939572;29;20068;-90
2023/10/22 20:49:36;;;;;;;5.72;3.53;;;;;;;;;;4939229;29;20036;-91
2023/10/22 20:52:39;;;;;;;4.95;4.00;;;;;;;;;;4935359;29;20058;-90
2023/10/22 20:55:49;;;;;;;;;;;;;;;;;;;;;
2023/10/22 21:01:29;;;;;;;6.20;3.87;;;;;;;;;;4982452;23;20083;-91
2023/10/22 21:08:07;;;;;;;6.60;3.40;;;;;;;;;;4917040;29;20065;-87
2023/10/22 21:10:54;;;;;;;6.60;3.28;;;;;;;;;;4911909;29;20053;-88
2023/10/22 21:13:56;;;;;;;8.50;3.65;;;;;;;;;;4915480;29;20037;-88
2023/10/22 21:16:52;;;;;;;;;;;;;;;;;;;;;
2023/10/22 21:20:06;;;;;;;7.75;3.85;;;;;;;;;;4900520;29;20049;-88
2023/10/22 21:22:56;;;;;;;4.67;3.30;;;;;;;;;;4900989;29;20049;-88
2023/10/22 21:25:51;;;;;;;6.70;5.25;;;;;;;;;;4901538;29;20397;-87
2023/10/22 21:28:32;;;;;;;6.65;5.13;;;;;;;;;;4901431;29;20037;-88
2023/10/22 21:31:17;;;;;;;7.93;4.55;;;;;;;;;;4900010;29;20045;-88
2023/10/22 21:34:01;;;;;;;8.48;4.88;;;;;;;;;;4886915;29;20045;-88
2023/10/22 21:36:45;;;;;;;6.15;4.82;;;;;;;;;;4898506;29;20057;-88
2023/10/22 21:39:29;;;;;;;11.50;4.90;;;;;;;;;;4898717;29;20044;-87
2023/10/22 21:42:07;;;;;;;10.77;4.90;;;;;;;;;;4900502;29;20048;-88
2023/10/22 21:45:03;;;;;;;6.20;5.00;;;;;;;;;;4900723;29;20074;-88
2023/10/22 21:47:47;;;;;;;9.93;6.15;;;;;;;;;;4895960;29;20052;-86
2023/10/22 21:50:34;;;;;;;10.90;5.75;;;;;;;;;;4880448;29;20057;-88
2023/10/22 21:53:29;;;;;;;;;;;;;;;;;;;;;
2023/10/22 21:56:19;;;;;;;12.27;6.05;;;;;;;;;;4906351;29;20051;-88
2023/10/22 21:59:08;;;;;;;10.00;5.80;;;;;;;;;;4896160;29;20045;-90
2023/10/22 22:01:56;;;;;;;9.73;6.57;;;;;;;;;;4880669;29;20083;-88
2023/10/22 22:05:14;;;;;;;10.00;5.95;;;;;;;;;;4880994;29;20053;-88
2023/10/22 22:08:03;;;;;;;9.35;5.93;;;;;;;;;;4880481;29;20049;-87
2023/10/22 22:10:51;;;;;;;7.90;5.57;;;;;;;;;;4894722;29;20097;-88
2023/10/22 22:13:43;;;;;;;;;;;;;;;;;;;;;
2023/10/22 22:16:47;;;;;;;10.60;6.00;;;;;;;;;;4897794;29;20077;-87
2023/10/22 22:19:31;;;;;;;13.00;6.32;;;;;;;;;;4883316;29;20081;-88
2023/10/22 22:22:20;;;;;;;7.75;6.03;;;;;;;;;;4883010;29;20033;-88
2023/10/22 22:25:05;;;;;;;13.15;8.27;;;;;;;;;;4883089;29;20072;-88
2023/10/22 22:27:46;;;;;;;10.40;6.05;;;;;;;;;;4880728;29;20049;-88
2023/10/22 22:30:32;;;;;;;11.75;5.80;;;;;;;;;;4881757;29;20127;-89
2023/10/22 22:33:17;;;;;;;12.50;7.67;;;;;;;;;;4881813;29;20214;-88
2023/10/22 22:35:58;;;;;;;8.32;5.68;;;;;;;;;;4884003;29;20464;-88
2023/10/22 22:38:40;;;;;;;11.77;7.38;;;;;;;;;;4882207;29;20051;-88
2023/10/22 22:41:24;;;;;;;8.75;6.75;;;;;;;;;;4883905;29;20048;-87
2023/10/22 22:44:09;;;;;;;11.70;7.22;;;;;;;;;;4940660;29;20068;-88
2023/10/22 22:46:52;;;;;;;11.70;7.85;;;;;;;;;;4939721;29;20050;-87
2023/10/22 22:49:53;;;;;;;15.48;8.05;;;;;;;;;;4941831;29;20039;-87
2023/10/22 22:52:55;;;;;;;11.32;8.02;;;;;;;;;;4941359;29;20067;-88
2023/10/22 22:55:37;;;;;;;9.95;7.35;;;;;;;;;;4940195;29;20055;-88
2023/10/22 22:58:18;;;;;;;12.38;8.10;;;;;;;;;;4941420;29;20032;-87
2023/10/22 23:01:00;;;;;;;18.98;8.27;;;;;;;;;;4924733;29;20044;-86
2023/10/22 23:03:42;;;;;;;12.30;7.85;;;;;;;;;;4922386;29;20048;-86
2023/10/22 23:06:27;;;;;;;13.35;7.95;;;;;;;;;;4919798;29;20058;-88
2023/10/22 23:09:08;;;;;;;19.38;8.02;;;;;;;;;;4923370;29;20059;-88
2023/10/22 23:12:05;;;;;;;15.65;7.38;;;;;;;;;;4925014;29;20066;-87
2023/10/22 23:14:54;;;;;;;10.35;7.20;;;;;;;;;;4923970;29;20040;-89
2023/10/22 23:17:49;;;;;;;10.85;7.43;;;;;;;;;;4939067;29;20043;-87
2023/10/22 23:20:53;;;;;;;13.07;7.88;;;;;;;;;;4938333;29;20058;-88
2023/10/22 23:23:36;;;;;;;16.10;9.02;;;;;;;;;;4923732;29;20063;-87
2023/10/22 23:26:17;;;;;;;12.63;7.22;;;;;;;;;;4923788;29;20036;-87
2023/10/22 23:28:59;;;;;;;13.52;7.82;;;;;;;;;;5123037;23;20052;-87
2023/10/22 23:31:41;;;;;;;13.32;7.80;;;;;;;;;;4943229;29;20048;-89
2023/10/22 23:34:24;;;;;;;10.18;8.13;;;;;;;;;;4942063;29;20038;-88
2023/10/22 23:37:07;;;;;;;13.05;7.85;;;;;;;;;;4942474;29;20040;-89
2023/10/22 23:39:48;;;;;;;13.45;7.97;;;;;;;;;;4941695;29;20058;-89
2023/10/22 23:42:31;;;;;;;14.52;8.55;;;;;;;;;;4941478;29;20087;-88
2023/10/22 23:45:34;;;;;;;11.90;7.72;;;;;;;;;;4957129;29;20094;-88
2023/10/22 23:48:24;;;;;;;10.07;7.45;;;;;;;;;;4940982;29;20090;-88
2023/10/22 23:51:06;;;;;;;15.77;8.07;;;;;;;;;;4938467;29;20055;-87
2023/10/22 23:53:58;;;;;;;17.20;8.90;;;;;;;;;;4953832;29;20050;-88
2023/10/22 23:56:42;;;;;;;17.63;8.75;;;;;;;;;;4941473;29;20103;-88
2023/10/22 23:59:28;;;;;;;15.52;8.10;;;;;;;;;;4939517;29;20055;-87
